Seaspan Cavaler — CFN6639 — position and weather

sailwx.info

Track history (hours):
 
Tides and Currents Weather Stations Pressure Air Temp Water Temp Dewpoint Dewpoint Depression Visibility Wind Speed Wind Dir Waves Ship Positions

Seaspan Cavaler

Last reported at 2018-Feb-22 07:00 UTC. Time now 2018-Feb-22 07:03 UTC.
Position N 48°31' W 122°35'.

Length 24 m; draft 5.2 m.

Type: Towing. MMSI: 316003659.

Date/timePositionNaut miles runAvg speedWind from/ knotsBaromVisibWave heightAir tempDewpointWater temp
2018-Feb-22 07:00N 48°31' W 122°35'0 0.0
2018-Feb-22 06:29N 48°31' W 122°35'0 0.0
2018-Feb-22 06:00N 48°31' W 122°35'0 0.0
2018-Feb-22 05:30N 48°31' W 122°35'0 0.0
2018-Feb-22 05:00N 48°31' W 122°35'0 0.0
2018-Feb-22 04:29N 48°31' W 122°35'0 0.0
2018-Feb-22 04:00N 48°31' W 122°35'0 0.0
2018-Feb-22 03:30N 48°31' W 122°35'0 0.0
2018-Feb-22 03:00N 48°31' W 122°35'0 0.0
2018-Feb-22 02:30N 48°31' W 122°35'0 0.0
2018-Feb-22 02:00N 48°31' W 122°35'0 0.0
2018-Feb-22 01:30N 48°31' W 122°35'0 0.0
2018-Feb-22 01:00N 48°31' W 122°35'0 0.0
2018-Feb-22 00:30N 48°31' W 122°35'0 0.0
2018-Feb-22 00:00N 48°31' W 122°35'0 0.0
2018-Feb-21 23:30N 48°31' W 122°35'0 0.0
2018-Feb-21 23:00N 48°31' W 122°35'0 0.0
2018-Feb-21 22:28N 48°31' W 122°35'0 0.0
2018-Feb-21 22:00N 48°31' W 122°35'0 0.0
2018-Feb-21 21:30N 48°31' W 122°35'0 0.0
2018-Feb-21 21:00N 48°31' W 122°35'0 0.0
2018-Feb-21 20:28N 48°31' W 122°35'0 0.0
2018-Feb-21 20:00N 48°31' W 122°35'0 0.0
2018-Feb-21 19:28N 48°31' W 122°35'0 0.0
2018-Feb-21 19:00N 48°31' W 122°35'0 0.0
2018-Feb-21 18:30N 48°31' W 122°35'0 0.2
2018-Feb-21 18:00N 48°31' W 122°35'1 2.1
2018-Feb-21 17:31N 48°31' W 122°35'1 2.4
2018-Feb-21 17:00N 48°32' W 122°34'2 4.5
2018-Feb-21 16:29N 48°34' W 122°35'2 3.2
2018-Feb-21 16:00N 48°36' W 122°36'3 5.8
2018-Feb-21 15:30N 48°38' W 122°39'3 5.2
2018-Feb-21 15:00N 48°40' W 122°41'3 6.6
2018-Feb-21 14:30N 48°42' W 122°44'3 6.4
2018-Feb-21 14:00N 48°45' W 122°48'3 6.4
2018-Feb-21 13:28N 48°47' W 122°52'4 7.4
2018-Feb-21 12:52N 48°49' W 122°58'4 7.1
2018-Feb-21 12:15N 48°52' W 123°03'2 7.5
2018-Feb-21 12:00N 48°53' W 123°05'4 7.3
2018-Feb-21 11:30N 48°55' W 123°10'4 7.7
2018-Feb-21 11:00N 48°58' W 123°14'4 7.7
2018-Feb-21 10:30N 49°00' W 123°18'4 7.8
2018-Feb-21 09:59N 49°03' W 123°23'4 7.8
2018-Feb-21 09:30N 49°07' W 123°23'4 7.9
2018-Feb-21 09:00N 49°11' W 123°22'4 8.0
2018-Feb-21 08:29N 49°15' W 123°21'4 7.8
2018-Feb-21 08:00N 49°18' W 123°18'4 7.6
2018-Feb-21 07:30N 49°19' W 123°12'4 7.9
2018-Feb-21 07:00N 49°18' W 123°07'1 1.1
2018-Feb-21 06:30N 49°19' W 123°06'0 0.7
2018-Feb-21 06:00N 49°19' W 123°06'0 0.0
2018-Feb-21 05:30N 49°19' W 123°06'0 0.0
2018-Feb-21 05:00N 49°19' W 123°06'0 0.0
2018-Feb-21 04:30N 49°19' W 123°06'0 0.0
2018-Feb-21 04:00N 49°19' W 123°06'0 0.0
2018-Feb-21 03:29N 49°19' W 123°06'0 0.1
2018-Feb-21 03:00N 49°19' W 123°06'0 0.1
2018-Feb-21 02:30N 49°19' W 123°06'0 0.0
2018-Feb-21 02:00N 49°19' W 123°06'0 0.0
2018-Feb-21 01:30N 49°19' W 123°06'0 0.0
2018-Feb-21 01:00N 49°19' W 123°06'0 0.0
2018-Feb-21 00:30N 49°19' W 123°06'0 0.0
2018-Feb-20 23:58N 49°19' W 123°06'0 0.0
2018-Feb-20 23:30N 49°19' W 123°06'0 0.0
2018-Feb-20 23:00N 49°19' W 123°06'0 0.0
2018-Feb-20 22:30N 49°19' W 123°06'0 0.0
2018-Feb-20 22:00N 49°19' W 123°06'0 0.0
2018-Feb-20 21:30N 49°19' W 123°06'0 0.0
2018-Feb-20 21:00N 49°19' W 123°06'0 0.0
2018-Feb-20 20:30N 49°19' W 123°06'0 0.0
2018-Feb-20 20:00N 49°19' W 123°06'0 0.0
2018-Feb-20 19:30N 49°19' W 123°06'0 0.0
2018-Feb-20 19:00N 49°19' W 123°06'0 0.0
2018-Feb-20 18:30N 49°19' W 123°06'0 0.0
2018-Feb-20 18:00N 49°19' W 123°06'0 0.0
2018-Feb-20 17:30N 49°19' W 123°06'0 0.0
2018-Feb-20 17:00N 49°19' W 123°06'0 0.0
2018-Feb-20 16:30N 49°19' W 123°06'0 0.0
2018-Feb-20 16:00N 49°19' W 123°06'0 0.0
2018-Feb-20 15:30N 49°19' W 123°06'0 0.0
2018-Feb-20 15:00N 49°19' W 123°06'0 0.0
2018-Feb-20 14:30N 49°19' W 123°06'0 0.0
2018-Feb-20 13:58N 49°19' W 123°06'0 0.0
2018-Feb-20 13:30N 49°19' W 123°06'0 0.0
2018-Feb-20 13:00N 49°19' W 123°06'0 0.0
2018-Feb-20 12:30N 49°19' W 123°06'0 0.0
2018-Feb-20 12:00N 49°19' W 123°06'0 0.0
2018-Feb-20 11:30N 49°19' W 123°06'0 0.0
2018-Feb-20 11:00N 49°19' W 123°06'0 0.0
2018-Feb-20 10:30N 49°19' W 123°06'0 0.0
2018-Feb-20 10:00N 49°19' W 123°06'0 0.0
2018-Feb-20 09:30N 49°19' W 123°06'0 0.0
2018-Feb-20 09:00N 49°19' W 123°06'0 0.0
2018-Feb-20 08:30N 49°19' W 123°06'0 0.0
2018-Feb-20 08:00N 49°19' W 123°06'0 0.0
2018-Feb-20 07:30N 49°19' W 123°06'0 0.0
2018-Feb-20 07:00N 49°19' W 123°06'0 0.0
2018-Feb-20 06:30N 49°19' W 123°06'0 0.0
2018-Feb-20 06:00N 49°19' W 123°06'0 0.0
2018-Feb-20 05:30N 49°19' W 123°06'0 0.0
2018-Feb-20 05:00N 49°19' W 123°06'0 0.0
2018-Feb-20 04:30N 49°19' W 123°06'0 0.0
2018-Feb-20 04:00N 49°19' W 123°06'0 0.0
2018-Feb-20 03:30N 49°19' W 123°06'0 0.0
2018-Feb-20 03:00N 49°19' W 123°06'0 0.9
2018-Feb-20 02:30N 49°18' W 123°06'2 3.2
2018-Feb-20 02:00N 49°19' W 123°08'2 4.7
2018-Feb-20 01:30N 49°19' W 123°12'3 5.9
2018-Feb-20 01:00N 49°18' W 123°16'4 7.1
2018-Feb-20 00:30N 49°14' W 123°18'3 7.0
2018-Feb-20 00:00N 49°11' W 123°19'3 6.6
2018-Feb-19 23:30N 49°08' W 123°19'3 5.0
2018-Feb-19 22:53N 49°08' W 123°15'3 8.6
2018-Feb-19 22:29N 49°07' W 123°10'3 5.7
2018-Feb-19 22:00N 49°07' W 123°06'3 5.2
2018-Feb-19 21:30N 49°07' W 123°09'2 1.4
2018-Feb-19 20:27N 49°07' W 123°11'0 0.0
2018-Feb-19 19:58N 49°07' W 123°11'0 0.0
2018-Feb-19 19:29N 49°07' W 123°11'0 0.0
2018-Feb-19 19:00N 49°07' W 123°11'0 0.0
2018-Feb-19 18:26N 49°07' W 123°11'3 7.3
2018-Feb-19 17:59N 49°07' W 123°07'5 9.5
2018-Feb-19 17:30N 49°09' W 123°01'4 7.4
2018-Feb-19 16:59N 49°11' W 122°55'1 2.3
2018-Feb-19 16:30N 49°12' W 122°55'2 3.6
2018-Feb-19 16:00N 49°10' W 122°56'2 4.6
2018-Feb-19 15:30N 49°09' W 122°59'2 4.1
2018-Feb-19 15:00N 49°09' W 123°02'2 5.0
2018-Feb-19 14:30N 49°07' W 123°05'3 5.6
2018-Feb-19 14:00N 49°06' W 123°09'3 5.3
2018-Feb-19 13:30N 49°08' W 123°13'3 5.0
2018-Feb-19 12:59N 49°07' W 123°16'3 5.4
2018-Feb-19 12:30N 49°06' W 123°20'3 5.0
2018-Feb-19 12:00N 49°05' W 123°24'2 4.0
2018-Feb-19 11:30N 49°04' W 123°26'1 2.4
2018-Feb-19 10:59N 49°03' W 123°27'1 2.1
2018-Feb-19 10:30N 49°04' W 123°26'1 1.5
2018-Feb-19 10:00N 49°04' W 123°27'1 2.8
2018-Feb-19 09:30N 49°03' W 123°29'2 4.0
2018-Feb-19 09:01N 49°02' W 123°31'2 3.7
2018-Feb-19 08:25N 49°01' W 123°34'5 2.3
2018-Feb-19 06:28N 48°57' W 123°37'1 2.4
2018-Feb-19 06:00N 48°56' W 123°37'1 2.6
2018-Feb-19 05:30N 48°55' W 123°37'1 2.5
2018-Feb-19 05:00N 48°54' W 123°37'1 2.3
2018-Feb-19 04:30N 48°53' W 123°37'1 0.9
2018-Feb-19 03:48N 48°52' W 123°38'0 0.4
2018-Feb-19 03:29N 48°52' W 123°38'0 0.4
2018-Feb-19 03:00N 48°52' W 123°38'1 1.7
2018-Feb-19 02:30N 48°53' W 123°37'3 6.5
2018-Feb-19 02:00N 48°56' W 123°37'3 6.2
2018-Feb-19 01:27N 48°60' W 123°36'2 4.1
2018-Feb-19 00:59N 49°01' W 123°35'2 3.7
2018-Feb-19 00:30N 49°03' W 123°36'2 3.5
2018-Feb-19 00:00N 49°05' W 123°37'7 3.4
2018-Feb-18 21:54N 49°05' W 123°26'2 4.8
2018-Feb-18 21:30N 49°06' W 123°23'3 5.1
2018-Feb-18 20:58N 49°06' W 123°19'3 7.4
2018-Feb-18 20:31N 49°08' W 123°14'4 7.4
2018-Feb-18 20:00N 49°07' W 123°09'3 6.8
2018-Feb-18 19:30N 49°08' W 123°04'3 6.3
2018-Feb-18 19:00N 49°09' W 123°00'2 3.5
2018-Feb-18 18:30N 49°09' W 122°57'0 0.1
2018-Feb-18 18:00N 49°09' W 122°57'0 0.0
2018-Feb-18 17:30N 49°09' W 122°57'0 0.0
2018-Feb-18 17:00N 49°09' W 122°57'0 0.0
2018-Feb-18 16:29N 49°09' W 122°57'0 0.0
2018-Feb-18 16:00N 49°09' W 122°57'0 0.0
2018-Feb-18 15:30N 49°09' W 122°57'0 0.0
2018-Feb-18 15:00N 49°09' W 122°57'2 4.2
2018-Feb-18 14:30N 49°11' W 122°55'1 1.4
2018-Feb-18 14:00N 49°12' W 122°54'0 0.1
2018-Feb-18 13:30N 49°12' W 122°55'2 4.3
2018-Feb-18 13:00N 49°10' W 122°56'2 4.2
2018-Feb-18 12:30N 49°09' W 122°59'3 5.2
2018-Feb-18 12:00N 49°08' W 123°03'2 4.9
2018-Feb-18 11:30N 49°07' W 123°06'2 4.6
2018-Feb-18 11:00N 49°07' W 123°09'2 4.4
2018-Feb-18 10:30N 49°08' W 123°13'2 3.8
2018-Feb-18 10:00N 49°07' W 123°15'2 3.6
2018-Feb-18 09:30N 49°06' W 123°18'1 2.1
2018-Feb-18 08:59N 49°07' W 123°19'3 5.9
2018-Feb-18 08:30N 49°10' W 123°19'3 6.1
2018-Feb-18 08:00N 49°13' W 123°18'3 5.8
2018-Feb-18 07:30N 49°15' W 123°18'1 2.5
2018-Feb-18 07:00N 49°16' W 123°20'3 6.1
2018-Feb-18 06:30N 49°17' W 123°24'3 5.9
2018-Feb-18 06:00N 49°18' W 123°28'3 5.7
2018-Feb-18 05:30N 49°20' W 123°32'3 5.8
2018-Feb-18 05:00N 49°21' W 123°36'3 5.4
2018-Feb-18 04:30N 49°22' W 123°40'14 5.3
2018-Feb-18 01:48N 49°28' W 124°00'2 5.7
2018-Feb-18 01:27N 49°29' W 124°03'3 5.6
2018-Feb-18 01:00N 49°31' W 124°05'3 5.9
2018-Feb-18 00:29N 49°33' W 124°08'3 6.1
2018-Feb-18 00:00N 49°35' W 124°11'3 6.1
2018-Feb-17 23:27N 49°38' W 124°15'3 6.0
2018-Feb-17 23:01N 49°40' W 124°17'3 5.9
2018-Feb-17 22:30N 49°42' W 124°20'3 5.7
2018-Feb-17 22:00N 49°44' W 124°24'3 5.3
2018-Feb-17 21:30N 49°45' W 124°27'2 5.0
2018-Feb-17 21:01N 49°47' W 124°30'3 5.0
2018-Feb-17 20:30N 49°49' W 124°33'3 5.2
2018-Feb-17 20:01N 49°51' W 124°34'1 1.9
2018-Feb-17 19:30N 49°52' W 124°34'0 0.7
2018-Feb-17 18:57N 49°52' W 124°33'0 0.0
2018-Feb-17 18:30N 49°52' W 124°33'0 0.0
2018-Feb-17 18:00N 49°52' W 124°33'0 0.8
2018-Feb-17 17:30N 49°52' W 124°34'1 1.5
2018-Feb-17 17:00N 49°51' W 124°33'3 5.7
2018-Feb-17 16:30N 49°49' W 124°33'4 7.4
2018-Feb-17 16:00N 49°46' W 124°29'4 7.4
2018-Feb-17 15:30N 49°45' W 124°24'3 6.9
2018-Feb-17 15:00N 49°43' W 124°19'3 6.9
2018-Feb-17 14:30N 49°40' W 124°16'3 6.8
2018-Feb-17 14:00N 49°37' W 124°12'3 6.6
2018-Feb-17 13:29N 49°35' W 124°09'26 6.5
2018-Feb-17 09:28N 49°20' W 123°35'3 5.9
2018-Feb-17 09:00N 49°19' W 123°32'3 5.8
2018-Feb-17 08:30N 49°18' W 123°28'3 6.0
2018-Feb-17 07:59N 49°17' W 123°23'3 6.0
2018-Feb-17 07:31N 49°16' W 123°19'2 3.6
2018-Feb-17 07:01N 49°14' W 123°18'3 5.7
2018-Feb-17 06:31N 49°11' W 123°19'3 6.4
2018-Feb-17 06:00N 49°08' W 123°19'2 3.8
2018-Feb-17 05:30N 49°07' W 123°16'4 8.2
2018-Feb-17 04:59N 49°07' W 123°10'4 8.1
2018-Feb-17 04:30N 49°08' W 123°04'4 7.4
2018-Feb-17 04:00N 49°09' W 122°59'1 2.2
2018-Feb-17 03:30N 49°09' W 122°57'0 0.2
2018-Feb-17 03:00N 49°09' W 122°57'1 2.3
2018-Feb-17 02:30N 49°10' W 122°56'0 0.8
2018-Feb-17 02:00N 49°10' W 122°55'0 0.0
2018-Feb-17 01:30N 49°10' W 122°55'0 0.0
2018-Feb-17 00:59N 49°10' W 122°55'0 0.0
2018-Feb-17 00:30N 49°10' W 122°55'0 0.0
2018-Feb-17 00:00N 49°10' W 122°55'0 0.0
2018-Feb-16 23:30N 49°10' W 122°55'0 0.0
2018-Feb-16 23:00N 49°10' W 122°55'0 0.0
2018-Feb-16 22:30N 49°10' W 122°55'0 0.0
2018-Feb-16 22:00N 49°10' W 122°55'0 0.0
2018-Feb-16 21:30N 49°10' W 122°55'0 0.0
2018-Feb-16 21:00N 49°10' W 122°55'0 0.0
2018-Feb-16 20:30N 49°10' W 122°55'0 0.0
2018-Feb-16 20:00N 49°10' W 122°55'0 0.0
2018-Feb-16 19:30N 49°10' W 122°55'0 0.0
2018-Feb-16 19:00N 49°10' W 122°55'0 0.0
2018-Feb-16 18:28N 49°10' W 122°55'0 0.0
2018-Feb-16 18:00N 49°10' W 122°55'0 0.0
2018-Feb-16 17:30N 49°10' W 122°55'0 0.0
2018-Feb-16 17:00N 49°10' W 122°55'2 3.3
2018-Feb-16 16:30N 49°12' W 122°54'1 1.2
2018-Feb-16 16:00N 49°11' W 122°55'2 4.4
2018-Feb-16 15:30N 49°09' W 122°57'2 4.5
2018-Feb-16 15:00N 49°09' W 123°01'3 5.3
2018-Feb-16 14:30N 49°08' W 123°04'3 5.9
2018-Feb-16 14:00N 49°06' W 123°08'3 5.6
2018-Feb-16 13:30N 49°07' W 123°12'2 4.8
2018-Feb-16 13:00N 49°07' W 123°16'2 4.8
2018-Feb-16 12:31N 49°06' W 123°19'1 2.8
2018-Feb-16 12:00N 49°08' W 123°19'2 3.0
2018-Feb-16 11:29N 49°09' W 123°19'2 3.4
2018-Feb-16 11:00N 49°11' W 123°18'0 0.9
2018-Feb-16 10:30N 49°11' W 123°18'0 0.8
2018-Feb-16 09:59N 49°12' W 123°18'1 1.2
2018-Feb-16 09:30N 49°12' W 123°18'1 1.4
2018-Feb-16 09:00N 49°13' W 123°18'1 1.6
2018-Feb-16 08:30N 49°14' W 123°18'1 1.6
2018-Feb-16 08:00N 49°15' W 123°18'1 1.6
2018-Feb-16 07:30N 49°15' W 123°18'1 1.9
2018-Feb-16 07:00N 49°16' W 123°20'3 5.7
2018-Feb-16 06:30N 49°17' W 123°24'3 5.4
2018-Feb-16 06:00N 49°18' W 123°27'3 5.8
2018-Feb-16 05:30N 49°19' W 123°32'3 5.8
2018-Feb-16 05:00N 49°21' W 123°36'3 5.7
2018-Feb-16 04:30N 49°22' W 123°40'14 5.4
2018-Feb-16 01:51N 49°27' W 123°60'3 5.5
2018-Feb-16 01:14N 49°30' W 124°03'2 5.8
2018-Feb-16 00:53N 49°31' W 124°06'3 5.9
2018-Feb-16 00:27N 49°33' W 124°08'3 5.5
2018-Feb-15 23:56N 49°35' W 124°11'3 5.2
2018-Feb-15 23:26N 49°37' W 124°14'2 5.2
2018-Feb-15 22:57N 49°39' W 124°16'3 5.4
2018-Feb-15 22:29N 49°41' W 124°19'3 5.5
2018-Feb-15 22:00N 49°43' W 124°22'3 5.2
2018-Feb-15 21:30N 49°44' W 124°25'2 4.8
2018-Feb-15 21:00N 49°46' W 124°28'2 4.9
2018-Feb-15 20:31N 49°47' W 124°31'2 4.7
2018-Feb-15 20:01N 49°49' W 124°33'3 5.1
2018-Feb-15 19:31N 49°52' W 124°34'0 0.7
2018-Feb-15 19:01N 49°52' W 124°34'0 0.4
2018-Feb-15 18:30N 49°52' W 124°34'0 0.4
2018-Feb-15 18:00N 49°52' W 124°34'0 0.9
2018-Feb-15 17:31N 49°52' W 124°34'0 0.6
2018-Feb-15 17:00N 49°52' W 124°34'0 0.2
2018-Feb-15 16:30N 49°52' W 124°34'1 1.3
2018-Feb-15 16:00N 49°52' W 124°33'1 2.2
2018-Feb-15 15:31N 49°51' W 124°33'1 1.9
2018-Feb-15 15:01N 49°50' W 124°33'1 3.0
2018-Feb-15 14:31N 49°48' W 124°32'3 6.3
2018-Feb-15 14:01N 49°46' W 124°28'3 6.2
2018-Feb-15 13:31N 49°45' W 124°24'3 5.9
2018-Feb-15 13:01N 49°43' W 124°20'3 5.8
2018-Feb-15 12:30N 49°41' W 124°17'3 6.0
2018-Feb-15 12:00N 49°39' W 124°14'4 6.5
2018-Feb-15 11:23N 49°36' W 124°10'2 6.2
2018-Feb-15 11:00N 49°34' W 124°08'3 6.2
2018-Feb-15 10:29N 49°31' W 124°05'21 5.8
2018-Feb-15 06:50N 49°21' W 123°37'3 5.6
2018-Feb-15 06:22N 49°20' W 123°33'2 5.4
2018-Feb-15 06:00N 49°19' W 123°30'3 5.2
2018-Feb-15 05:30N 49°18' W 123°27'3 5.3
2018-Feb-15 04:59N 49°17' W 123°23'2 5.3
2018-Feb-15 04:30N 49°16' W 123°19'1 2.5
2018-Feb-15 04:00N 49°15' W 123°18'2 4.4
2018-Feb-15 03:30N 49°13' W 123°18'3 5.9
2018-Feb-15 03:00N 49°10' W 123°19'3 5.7
2018-Feb-15 02:30N 49°07' W 123°19'3 5.2
2018-Feb-15 01:55N 49°08' W 123°15'3 6.8
2018-Feb-15 01:30N 49°07' W 123°11'4 7.0
2018-Feb-15 01:00N 49°07' W 123°05'3 7.1
2018-Feb-15 00:30N 49°09' W 123°01'2 4.6
2018-Feb-15 00:00N 49°09' W 122°57'2 4.2
2018-Feb-14 23:30N 49°11' W 122°55'0 0.4
2018-Feb-14 23:00N 49°11' W 122°55'4 8.5
2018-Feb-14 22:30N 49°09' W 123°01'4 8.6
2018-Feb-14 21:59N 49°07' W 123°06'4 8.3
2018-Feb-14 21:30N 49°07' W 123°12'4 8.8
2018-Feb-14 21:00N 49°06' W 123°19'510.8
2018-Feb-14 20:30N 49°12' W 123°18'510.4
2018-Feb-14 20:01N 49°17' W 123°17'510.3
2018-Feb-14 19:30N 49°19' W 123°10'2 4.3
2018-Feb-14 19:00N 49°18' W 123°07'0 0.0
2018-Feb-14 18:28N 49°18' W 123°07'0 0.4
2018-Feb-14 18:00N 49°18' W 123°07'1 2.0
2018-Feb-14 17:30N 49°19' W 123°06'0 0.0
2018-Feb-14 17:00N 49°19' W 123°06'0 0.0
2018-Feb-14 16:30N 49°19' W 123°06'0 0.0
2018-Feb-14 16:00N 49°19' W 123°06'0 0.0
2018-Feb-14 15:29N 49°19' W 123°06'0 0.0
2018-Feb-14 15:00N 49°19' W 123°06'0 0.0
2018-Feb-14 14:30N 49°19' W 123°06'0 0.0
2018-Feb-14 14:00N 49°19' W 123°06'0 0.0
2018-Feb-14 13:31N 49°19' W 123°06'0 0.0
2018-Feb-14 13:00N 49°19' W 123°06'0 0.0
2018-Feb-14 12:30N 49°19' W 123°06'0 0.0
2018-Feb-14 12:00N 49°19' W 123°06'0 0.0
2018-Feb-14 11:30N 49°19' W 123°06'0 0.0
2018-Feb-14 11:00N 49°19' W 123°06'0 0.0
2018-Feb-14 10:30N 49°19' W 123°06'0 0.0
2018-Feb-14 10:00N 49°19' W 123°06'0 0.0
2018-Feb-14 09:30N 49°19' W 123°06'0 0.0
2018-Feb-14 09:01N 49°19' W 123°06'0 0.0
2018-Feb-14 08:30N 49°19' W 123°06'0 0.0
2018-Feb-14 08:00N 49°19' W 123°06'0 0.0
2018-Feb-14 07:30N 49°19' W 123°06'0 0.0
2018-Feb-14 07:00N 49°19' W 123°06'0 0.0
2018-Feb-14 06:30N 49°19' W 123°06'0 0.0
2018-Feb-14 06:00N 49°19' W 123°06'0 0.0
2018-Feb-14 05:30N 49°19' W 123°06'0 0.0
2018-Feb-14 05:00N 49°19' W 123°06'0 0.0
2018-Feb-14 04:30N 49°19' W 123°06'0 0.0
2018-Feb-14 04:00N 49°19' W 123°06'0 0.0
2018-Feb-14 03:30N 49°19' W 123°06'0 0.0
2018-Feb-14 02:59N 49°19' W 123°06'0 0.0
2018-Feb-14 02:30N 49°19' W 123°06'0 0.0
2018-Feb-14 02:00N 49°19' W 123°06'0 0.0
2018-Feb-14 01:30N 49°19' W 123°06'0 0.0
2018-Feb-14 01:00N 49°19' W 123°06'0 0.0
2018-Feb-14 00:30N 49°19' W 123°06'0 0.0
2018-Feb-14 00:00N 49°19' W 123°06'0 0.0
2018-Feb-13 23:30N 49°19' W 123°06'0 0.0
2018-Feb-13 23:00N 49°19' W 123°06'0 0.0
2018-Feb-13 22:30N 49°19' W 123°06'0 0.0
2018-Feb-13 22:00N 49°19' W 123°06'0 0.0
2018-Feb-13 21:30N 49°19' W 123°06'0 0.0
2018-Feb-13 21:01N 49°19' W 123°06'0 0.0
2018-Feb-13 20:30N 49°19' W 123°06'0 0.0
2018-Feb-13 20:00N 49°19' W 123°06'0 0.0
2018-Feb-13 19:31N 49°19' W 123°06'0 0.0
2018-Feb-13 19:00N 49°19' W 123°06'0 0.1
2018-Feb-13 18:30N 49°19' W 123°06'0 0.0
2018-Feb-13 18:00N 49°19' W 123°06'0 0.0
2018-Feb-13 17:30N 49°19' W 123°06'0 0.0
2018-Feb-13 17:00N 49°19' W 123°06'0 0.0
2018-Feb-13 16:30N 49°19' W 123°06'  
Track history (hours):
 
Tides and Currents Weather Stations Pressure Air Temp Water Temp Dewpoint Dewpoint Depression Visibility Wind Speed Wind Dir Waves Ship Positions

Seaspan Cavaler

Last reported at 2018-Feb-22 07:00 UTC. Time now 2018-Feb-22 07:03 UTC.
Position N 48°31' W 122°35'.

Length 24 m; draft 5.2 m.

Type: Towing. MMSI: 316003659.

Date/timePositionNaut miles runAvg speedWind from/ knotsBaromVisibWave heightAir tempDewpointWater temp
2018-Feb-22 07:00N 48°31' W 122°35'0 0.0
2018-Feb-22 06:29N 48°31' W 122°35'0 0.0
2018-Feb-22 06:00N 48°31' W 122°35'0 0.0
2018-Feb-22 05:30N 48°31' W 122°35'0 0.0
2018-Feb-22 05:00N 48°31' W 122°35'0 0.0
2018-Feb-22 04:29N 48°31' W 122°35'0 0.0
2018-Feb-22 04:00N 48°31' W 122°35'0 0.0
2018-Feb-22 03:30N 48°31' W 122°35'0 0.0
2018-Feb-22 03:00N 48°31' W 122°35'0 0.0
2018-Feb-22 02:30N 48°31' W 122°35'0 0.0
2018-Feb-22 02:00N 48°31' W 122°35'0 0.0
2018-Feb-22 01:30N 48°31' W 122°35'0 0.0
2018-Feb-22 01:00N 48°31' W 122°35'0 0.0
2018-Feb-22 00:30N 48°31' W 122°35'0 0.0
2018-Feb-22 00:00N 48°31' W 122°35'0 0.0
2018-Feb-21 23:30N 48°31' W 122°35'0 0.0
2018-Feb-21 23:00N 48°31' W 122°35'0 0.0
2018-Feb-21 22:28N 48°31' W 122°35'0 0.0
2018-Feb-21 22:00N 48°31' W 122°35'0 0.0
2018-Feb-21 21:30N 48°31' W 122°35'0 0.0
2018-Feb-21 21:00N 48°31' W 122°35'0 0.0
2018-Feb-21 20:28N 48°31' W 122°35'0 0.0
2018-Feb-21 20:00N 48°31' W 122°35'0 0.0
2018-Feb-21 19:28N 48°31' W 122°35'0 0.0
2018-Feb-21 19:00N 48°31' W 122°35'0 0.0
2018-Feb-21 18:30N 48°31' W 122°35'0 0.2
2018-Feb-21 18:00N 48°31' W 122°35'1 2.1
2018-Feb-21 17:31N 48°31' W 122°35'1 2.4
2018-Feb-21 17:00N 48°32' W 122°34'2 4.5
2018-Feb-21 16:29N 48°34' W 122°35'2 3.2
2018-Feb-21 16:00N 48°36' W 122°36'3 5.8
2018-Feb-21 15:30N 48°38' W 122°39'3 5.2
2018-Feb-21 15:00N 48°40' W 122°41'3 6.6
2018-Feb-21 14:30N 48°42' W 122°44'3 6.4
2018-Feb-21 14:00N 48°45' W 122°48'3 6.4
2018-Feb-21 13:28N 48°47' W 122°52'4 7.4
2018-Feb-21 12:52N 48°49' W 122°58'4 7.1
2018-Feb-21 12:15N 48°52' W 123°03'2 7.5
2018-Feb-21 12:00N 48°53' W 123°05'4 7.3
2018-Feb-21 11:30N 48°55' W 123°10'4 7.7
2018-Feb-21 11:00N 48°58' W 123°14'4 7.7
2018-Feb-21 10:30N 49°00' W 123°18'4 7.8
2018-Feb-21 09:59N 49°03' W 123°23'4 7.8
2018-Feb-21 09:30N 49°07' W 123°23'4 7.9
2018-Feb-21 09:00N 49°11' W 123°22'4 8.0
2018-Feb-21 08:29N 49°15' W 123°21'4 7.8
2018-Feb-21 08:00N 49°18' W 123°18'4 7.6
2018-Feb-21 07:30N 49°19' W 123°12'4 7.9
2018-Feb-21 07:00N 49°18' W 123°07'1 1.1
2018-Feb-21 06:30N 49°19' W 123°06'0 0.7
2018-Feb-21 06:00N 49°19' W 123°06'0 0.0
2018-Feb-21 05:30N 49°19' W 123°06'0 0.0
2018-Feb-21 05:00N 49°19' W 123°06'0 0.0
2018-Feb-21 04:30N 49°19' W 123°06'0 0.0
2018-Feb-21 04:00N 49°19' W 123°06'0 0.0
2018-Feb-21 03:29N 49°19' W 123°06'0 0.1
2018-Feb-21 03:00N 49°19' W 123°06'0 0.1
2018-Feb-21 02:30N 49°19' W 123°06'0 0.0
2018-Feb-21 02:00N 49°19' W 123°06'0 0.0
2018-Feb-21 01:30N 49°19' W 123°06'0 0.0
2018-Feb-21 01:00N 49°19' W 123°06'0 0.0
2018-Feb-21 00:30N 49°19' W 123°06'0 0.0
2018-Feb-20 23:58N 49°19' W 123°06'0 0.0
2018-Feb-20 23:30N 49°19' W 123°06'0 0.0
2018-Feb-20 23:00N 49°19' W 123°06'0 0.0
2018-Feb-20 22:30N 49°19' W 123°06'0 0.0
2018-Feb-20 22:00N 49°19' W 123°06'0 0.0
2018-Feb-20 21:30N 49°19' W 123°06'0 0.0
2018-Feb-20 21:00N 49°19' W 123°06'0 0.0
2018-Feb-20 20:30N 49°19' W 123°06'0 0.0
2018-Feb-20 20:00N 49°19' W 123°06'0 0.0
2018-Feb-20 19:30N 49°19' W 123°06'0 0.0
2018-Feb-20 19:00N 49°19' W 123°06'0 0.0
2018-Feb-20 18:30N 49°19' W 123°06'0 0.0
2018-Feb-20 18:00N 49°19' W 123°06'0 0.0
2018-Feb-20 17:30N 49°19' W 123°06'0 0.0
2018-Feb-20 17:00N 49°19' W 123°06'0 0.0
2018-Feb-20 16:30N 49°19' W 123°06'0 0.0
2018-Feb-20 16:00N 49°19' W 123°06'0 0.0
2018-Feb-20 15:30N 49°19' W 123°06'0 0.0
2018-Feb-20 15:00N 49°19' W 123°06'0 0.0
2018-Feb-20 14:30N 49°19' W 123°06'0 0.0
2018-Feb-20 13:58N 49°19' W 123°06'0 0.0
2018-Feb-20 13:30N 49°19' W 123°06'0 0.0
2018-Feb-20 13:00N 49°19' W 123°06'0 0.0
2018-Feb-20 12:30N 49°19' W 123°06'0 0.0
2018-Feb-20 12:00N 49°19' W 123°06'0 0.0
2018-Feb-20 11:30N 49°19' W 123°06'0 0.0
2018-Feb-20 11:00N 49°19' W 123°06'0 0.0
2018-Feb-20 10:30N 49°19' W 123°06'0 0.0
2018-Feb-20 10:00N 49°19' W 123°06'0 0.0
2018-Feb-20 09:30N 49°19' W 123°06'0 0.0
2018-Feb-20 09:00N 49°19' W 123°06'0 0.0
2018-Feb-20 08:30N 49°19' W 123°06'0 0.0
2018-Feb-20 08:00N 49°19' W 123°06'0 0.0
2018-Feb-20 07:30N 49°19' W 123°06'0 0.0
2018-Feb-20 07:00N 49°19' W 123°06'0 0.0
2018-Feb-20 06:30N 49°19' W 123°06'0 0.0
2018-Feb-20 06:00N 49°19' W 123°06'0 0.0
2018-Feb-20 05:30N 49°19' W 123°06'0 0.0
2018-Feb-20 05:00N 49°19' W 123°06'0 0.0
2018-Feb-20 04:30N 49°19' W 123°06'0 0.0
2018-Feb-20 04:00N 49°19' W 123°06'0 0.0
2018-Feb-20 03:30N 49°19' W 123°06'0 0.0
2018-Feb-20 03:00N 49°19' W 123°06'0 0.9
2018-Feb-20 02:30N 49°18' W 123°06'2 3.2
2018-Feb-20 02:00N 49°19' W 123°08'2 4.7
2018-Feb-20 01:30N 49°19' W 123°12'3 5.9
2018-Feb-20 01:00N 49°18' W 123°16'4 7.1
2018-Feb-20 00:30N 49°14' W 123°18'3 7.0
2018-Feb-20 00:00N 49°11' W 123°19'3 6.6
2018-Feb-19 23:30N 49°08' W 123°19'3 5.0
2018-Feb-19 22:53N 49°08' W 123°15'3 8.6
2018-Feb-19 22:29N 49°07' W 123°10'3 5.7
2018-Feb-19 22:00N 49°07' W 123°06'3 5.2
2018-Feb-19 21:30N 49°07' W 123°09'2 1.4
2018-Feb-19 20:27N 49°07' W 123°11'0 0.0
2018-Feb-19 19:58N 49°07' W 123°11'0 0.0
2018-Feb-19 19:29N 49°07' W 123°11'0 0.0
2018-Feb-19 19:00N 49°07' W 123°11'0 0.0
2018-Feb-19 18:26N 49°07' W 123°11'3 7.3
2018-Feb-19 17:59N 49°07' W 123°07'5 9.5
2018-Feb-19 17:30N 49°09' W 123°01'4 7.4
2018-Feb-19 16:59N 49°11' W 122°55'1 2.3
2018-Feb-19 16:30N 49°12' W 122°55'2 3.6
2018-Feb-19 16:00N 49°10' W 122°56'2 4.6
2018-Feb-19 15:30N 49°09' W 122°59'2 4.1
2018-Feb-19 15:00N 49°09' W 123°02'2 5.0
2018-Feb-19 14:30N 49°07' W 123°05'3 5.6
2018-Feb-19 14:00N 49°06' W 123°09'3 5.3
2018-Feb-19 13:30N 49°08' W 123°13'3 5.0
2018-Feb-19 12:59N 49°07' W 123°16'3 5.4
2018-Feb-19 12:30N 49°06' W 123°20'3 5.0
2018-Feb-19 12:00N 49°05' W 123°24'2 4.0
2018-Feb-19 11:30N 49°04' W 123°26'1 2.4
2018-Feb-19 10:59N 49°03' W 123°27'1 2.1
2018-Feb-19 10:30N 49°04' W 123°26'1 1.5
2018-Feb-19 10:00N 49°04' W 123°27'1 2.8
2018-Feb-19 09:30N 49°03' W 123°29'2 4.0
2018-Feb-19 09:01N 49°02' W 123°31'2 3.7
2018-Feb-19 08:25N 49°01' W 123°34'5 2.3
2018-Feb-19 06:28N 48°57' W 123°37'1 2.4
2018-Feb-19 06:00N 48°56' W 123°37'1 2.6
2018-Feb-19 05:30N 48°55' W 123°37'1 2.5
2018-Feb-19 05:00N 48°54' W 123°37'1 2.3
2018-Feb-19 04:30N 48°53' W 123°37'1 0.9
2018-Feb-19 03:48N 48°52' W 123°38'0 0.4
2018-Feb-19 03:29N 48°52' W 123°38'0 0.4
2018-Feb-19 03:00N 48°52' W 123°38'1 1.7
2018-Feb-19 02:30N 48°53' W 123°37'3 6.5
2018-Feb-19 02:00N 48°56' W 123°37'3 6.2
2018-Feb-19 01:27N 48°60' W 123°36'2 4.1
2018-Feb-19 00:59N 49°01' W 123°35'2 3.7
2018-Feb-19 00:30N 49°03' W 123°36'2 3.5
2018-Feb-19 00:00N 49°05' W 123°37'7 3.4
2018-Feb-18 21:54N 49°05' W 123°26'2 4.8
2018-Feb-18 21:30N 49°06' W 123°23'3 5.1
2018-Feb-18 20:58N 49°06' W 123°19'3 7.4
2018-Feb-18 20:31N 49°08' W 123°14'4 7.4
2018-Feb-18 20:00N 49°07' W 123°09'3 6.8
2018-Feb-18 19:30N 49°08' W 123°04'3 6.3
2018-Feb-18 19:00N 49°09' W 123°00'2 3.5
2018-Feb-18 18:30N 49°09' W 122°57'0 0.1
2018-Feb-18 18:00N 49°09' W 122°57'0 0.0
2018-Feb-18 17:30N 49°09' W 122°57'0 0.0
2018-Feb-18 17:00N 49°09' W 122°57'0 0.0
2018-Feb-18 16:29N 49°09' W 122°57'0 0.0
2018-Feb-18 16:00N 49°09' W 122°57'0 0.0
2018-Feb-18 15:30N 49°09' W 122°57'0 0.0
2018-Feb-18 15:00N 49°09' W 122°57'2 4.2
2018-Feb-18 14:30N 49°11' W 122°55'1 1.4
2018-Feb-18 14:00N 49°12' W 122°54'0 0.1
2018-Feb-18 13:30N 49°12' W 122°55'2 4.3
2018-Feb-18 13:00N 49°10' W 122°56'2 4.2
2018-Feb-18 12:30N 49°09' W 122°59'3 5.2
2018-Feb-18 12:00N 49°08' W 123°03'2 4.9
2018-Feb-18 11:30N 49°07' W 123°06'2 4.6
2018-Feb-18 11:00N 49°07' W 123°09'2 4.4
2018-Feb-18 10:30N 49°08' W 123°13'2 3.8
2018-Feb-18 10:00N 49°07' W 123°15'2 3.6
2018-Feb-18 09:30N 49°06' W 123°18'1 2.1
2018-Feb-18 08:59N 49°07' W 123°19'3 5.9
2018-Feb-18 08:30N 49°10' W 123°19'3 6.1
2018-Feb-18 08:00N 49°13' W 123°18'3 5.8
2018-Feb-18 07:30N 49°15' W 123°18'1 2.5
2018-Feb-18 07:00N 49°16' W 123°20'3 6.1
2018-Feb-18 06:30N 49°17' W 123°24'3 5.9
2018-Feb-18 06:00N 49°18' W 123°28'3 5.7
2018-Feb-18 05:30N 49°20' W 123°32'3 5.8
2018-Feb-18 05:00N 49°21' W 123°36'3 5.4
2018-Feb-18 04:30N 49°22' W 123°40'14 5.3
2018-Feb-18 01:48N 49°28' W 124°00'2 5.7
2018-Feb-18 01:27N 49°29' W 124°03'3 5.6
2018-Feb-18 01:00N 49°31' W 124°05'3 5.9
2018-Feb-18 00:29N 49°33' W 124°08'3 6.1
2018-Feb-18 00:00N 49°35' W 124°11'3 6.1
2018-Feb-17 23:27N 49°38' W 124°15'3 6.0
2018-Feb-17 23:01N 49°40' W 124°17'3 5.9
2018-Feb-17 22:30N 49°42' W 124°20'3 5.7
2018-Feb-17 22:00N 49°44' W 124°24'3 5.3
2018-Feb-17 21:30N 49°45' W 124°27'2 5.0
2018-Feb-17 21:01N 49°47' W 124°30'3 5.0
2018-Feb-17 20:30N 49°49' W 124°33'3 5.2
2018-Feb-17 20:01N 49°51' W 124°34'1 1.9
2018-Feb-17 19:30N 49°52' W 124°34'0 0.7
2018-Feb-17 18:57N 49°52' W 124°33'0 0.0
2018-Feb-17 18:30N 49°52' W 124°33'0 0.0
2018-Feb-17 18:00N 49°52' W 124°33'0 0.8
2018-Feb-17 17:30N 49°52' W 124°34'1 1.5
2018-Feb-17 17:00N 49°51' W 124°33'3 5.7
2018-Feb-17 16:30N 49°49' W 124°33'4 7.4
2018-Feb-17 16:00N 49°46' W 124°29'4 7.4
2018-Feb-17 15:30N 49°45' W 124°24'3 6.9
2018-Feb-17 15:00N 49°43' W 124°19'3 6.9
2018-Feb-17 14:30N 49°40' W 124°16'3 6.8
2018-Feb-17 14:00N 49°37' W 124°12'3 6.6
2018-Feb-17 13:29N 49°35' W 124°09'26 6.5
2018-Feb-17 09:28N 49°20' W 123°35'3 5.9
2018-Feb-17 09:00N 49°19' W 123°32'3 5.8
2018-Feb-17 08:30N 49°18' W 123°28'3 6.0
2018-Feb-17 07:59N 49°17' W 123°23'3 6.0
2018-Feb-17 07:31N 49°16' W 123°19'2 3.6
2018-Feb-17 07:01N 49°14' W 123°18'3 5.7
2018-Feb-17 06:31N 49°11' W 123°19'3 6.4
2018-Feb-17 06:00N 49°08' W 123°19'2 3.8
2018-Feb-17 05:30N 49°07' W 123°16'4 8.2
2018-Feb-17 04:59N 49°07' W 123°10'4 8.1
2018-Feb-17 04:30N 49°08' W 123°04'4 7.4
2018-Feb-17 04:00N 49°09' W 122°59'1 2.2
2018-Feb-17 03:30N 49°09' W 122°57'0 0.2
2018-Feb-17 03:00N 49°09' W 122°57'1 2.3
2018-Feb-17 02:30N 49°10' W 122°56'0 0.8
2018-Feb-17 02:00N 49°10' W 122°55'0 0.0
2018-Feb-17 01:30N 49°10' W 122°55'0 0.0
2018-Feb-17 00:59N 49°10' W 122°55'0 0.0
2018-Feb-17 00:30N 49°10' W 122°55'0 0.0
2018-Feb-17 00:00N 49°10' W 122°55'0 0.0
2018-Feb-16 23:30N 49°10' W 122°55'0 0.0
2018-Feb-16 23:00N 49°10' W 122°55'0 0.0
2018-Feb-16 22:30N 49°10' W 122°55'0 0.0
2018-Feb-16 22:00N 49°10' W 122°55'0 0.0
2018-Feb-16 21:30N 49°10' W 122°55'0 0.0
2018-Feb-16 21:00N 49°10' W 122°55'0 0.0
2018-Feb-16 20:30N 49°10' W 122°55'0 0.0
2018-Feb-16 20:00N 49°10' W 122°55'0 0.0
2018-Feb-16 19:30N 49°10' W 122°55'0 0.0
2018-Feb-16 19:00N 49°10' W 122°55'0 0.0
2018-Feb-16 18:28N 49°10' W 122°55'0 0.0
2018-Feb-16 18:00N 49°10' W 122°55'0 0.0
2018-Feb-16 17:30N 49°10' W 122°55'0 0.0
2018-Feb-16 17:00N 49°10' W 122°55'2 3.3
2018-Feb-16 16:30N 49°12' W 122°54'1 1.2
2018-Feb-16 16:00N 49°11' W 122°55'2 4.4
2018-Feb-16 15:30N 49°09' W 122°57'2 4.5
2018-Feb-16 15:00N 49°09' W 123°01'3 5.3
2018-Feb-16 14:30N 49°08' W 123°04'3 5.9
2018-Feb-16 14:00N 49°06' W 123°08'3 5.6
2018-Feb-16 13:30N 49°07' W 123°12'2 4.8
2018-Feb-16 13:00N 49°07' W 123°16'2 4.8
2018-Feb-16 12:31N 49°06' W 123°19'1 2.8
2018-Feb-16 12:00N 49°08' W 123°19'2 3.0
2018-Feb-16 11:29N 49°09' W 123°19'2 3.4
2018-Feb-16 11:00N 49°11' W 123°18'0 0.9
2018-Feb-16 10:30N 49°11' W 123°18'0 0.8
2018-Feb-16 09:59N 49°12' W 123°18'1 1.2
2018-Feb-16 09:30N 49°12' W 123°18'1 1.4
2018-Feb-16 09:00N 49°13' W 123°18'1 1.6
2018-Feb-16 08:30N 49°14' W 123°18'1 1.6
2018-Feb-16 08:00N 49°15' W 123°18'1 1.6
2018-Feb-16 07:30N 49°15' W 123°18'1 1.9
2018-Feb-16 07:00N 49°16' W 123°20'3 5.7
2018-Feb-16 06:30N 49°17' W 123°24'3 5.4
2018-Feb-16 06:00N 49°18' W 123°27'3 5.8
2018-Feb-16 05:30N 49°19' W 123°32'3 5.8
2018-Feb-16 05:00N 49°21' W 123°36'3 5.7
2018-Feb-16 04:30N 49°22' W 123°40'14 5.4
2018-Feb-16 01:51N 49°27' W 123°60'3 5.5
2018-Feb-16 01:14N 49°30' W 124°03'2 5.8
2018-Feb-16 00:53N 49°31' W 124°06'3 5.9
2018-Feb-16 00:27N 49°33' W 124°08'3 5.5
2018-Feb-15 23:56N 49°35' W 124°11'3 5.2
2018-Feb-15 23:26N 49°37' W 124°14'2 5.2
2018-Feb-15 22:57N 49°39' W 124°16'3 5.4
2018-Feb-15 22:29N 49°41' W 124°19'3 5.5
2018-Feb-15 22:00N 49°43' W 124°22'3 5.2
2018-Feb-15 21:30N 49°44' W 124°25'2 4.8
2018-Feb-15 21:00N 49°46' W 124°28'2 4.9
2018-Feb-15 20:31N 49°47' W 124°31'2 4.7
2018-Feb-15 20:01N 49°49' W 124°33'3 5.1
2018-Feb-15 19:31N 49°52' W 124°34'0 0.7
2018-Feb-15 19:01N 49°52' W 124°34'0 0.4
2018-Feb-15 18:30N 49°52' W 124°34'0 0.4
2018-Feb-15 18:00N 49°52' W 124°34'0 0.9
2018-Feb-15 17:31N 49°52' W 124°34'0 0.6
2018-Feb-15 17:00N 49°52' W 124°34'0 0.2
2018-Feb-15 16:30N 49°52' W 124°34'1 1.3
2018-Feb-15 16:00N 49°52' W 124°33'1 2.2
2018-Feb-15 15:31N 49°51' W 124°33'1 1.9
2018-Feb-15 15:01N 49°50' W 124°33'1 3.0
2018-Feb-15 14:31N 49°48' W 124°32'3 6.3
2018-Feb-15 14:01N 49°46' W 124°28'3 6.2
2018-Feb-15 13:31N 49°45' W 124°24'3 5.9
2018-Feb-15 13:01N 49°43' W 124°20'3 5.8
2018-Feb-15 12:30N 49°41' W 124°17'3 6.0
2018-Feb-15 12:00N 49°39' W 124°14'4 6.5
2018-Feb-15 11:23N 49°36' W 124°10'2 6.2
2018-Feb-15 11:00N 49°34' W 124°08'3 6.2
2018-Feb-15 10:29N 49°31' W 124°05'21 5.8
2018-Feb-15 06:50N 49°21' W 123°37'3 5.6
2018-Feb-15 06:22N 49°20' W 123°33'2 5.4
2018-Feb-15 06:00N 49°19' W 123°30'3 5.2
2018-Feb-15 05:30N 49°18' W 123°27'3 5.3
2018-Feb-15 04:59N 49°17' W 123°23'2 5.3
2018-Feb-15 04:30N 49°16' W 123°19'1 2.5
2018-Feb-15 04:00N 49°15' W 123°18'2 4.4
2018-Feb-15 03:30N 49°13' W 123°18'3 5.9
2018-Feb-15 03:00N 49°10' W 123°19'3 5.7
2018-Feb-15 02:30N 49°07' W 123°19'3 5.2
2018-Feb-15 01:55N 49°08' W 123°15'3 6.8
2018-Feb-15 01:30N 49°07' W 123°11'4 7.0
2018-Feb-15 01:00N 49°07' W 123°05'3 7.1
2018-Feb-15 00:30N 49°09' W 123°01'2 4.6
2018-Feb-15 00:00N 49°09' W 122°57'2 4.2
2018-Feb-14 23:30N 49°11' W 122°55'0 0.4
2018-Feb-14 23:00N 49°11' W 122°55'4 8.5
2018-Feb-14 22:30N 49°09' W 123°01'4 8.6
2018-Feb-14 21:59N 49°07' W 123°06'4 8.3
2018-Feb-14 21:30N 49°07' W 123°12'4 8.8
2018-Feb-14 21:00N 49°06' W 123°19'510.8
2018-Feb-14 20:30N 49°12' W 123°18'510.4
2018-Feb-14 20:01N 49°17' W 123°17'510.3
2018-Feb-14 19:30N 49°19' W 123°10'2 4.3
2018-Feb-14 19:00N 49°18' W 123°07'0 0.0
2018-Feb-14 18:28N 49°18' W 123°07'0 0.4
2018-Feb-14 18:00N 49°18' W 123°07'1 2.0
2018-Feb-14 17:30N 49°19' W 123°06'0 0.0
2018-Feb-14 17:00N 49°19' W 123°06'0 0.0
2018-Feb-14 16:30N 49°19' W 123°06'0 0.0
2018-Feb-14 16:00N 49°19' W 123°06'0 0.0
2018-Feb-14 15:29N 49°19' W 123°06'0 0.0
2018-Feb-14 15:00N 49°19' W 123°06'0 0.0
2018-Feb-14 14:30N 49°19' W 123°06'0 0.0
2018-Feb-14 14:00N 49°19' W 123°06'0 0.0
2018-Feb-14 13:31N 49°19' W 123°06'0 0.0
2018-Feb-14 13:00N 49°19' W 123°06'0 0.0
2018-Feb-14 12:30N 49°19' W 123°06'0 0.0
2018-Feb-14 12:00N 49°19' W 123°06'0 0.0
2018-Feb-14 11:30N 49°19' W 123°06'0 0.0
2018-Feb-14 11:00N 49°19' W 123°06'0 0.0
2018-Feb-14 10:30N 49°19' W 123°06'0 0.0
2018-Feb-14 10:00N 49°19' W 123°06'0 0.0
2018-Feb-14 09:30N 49°19' W 123°06'0 0.0
2018-Feb-14 09:01N 49°19' W 123°06'0 0.0
2018-Feb-14 08:30N 49°19' W 123°06'0 0.0
2018-Feb-14 08:00N 49°19' W 123°06'0 0.0
2018-Feb-14 07:30N 49°19' W 123°06'0 0.0
2018-Feb-14 07:00N 49°19' W 123°06'0 0.0
2018-Feb-14 06:30N 49°19' W 123°06'0 0.0
2018-Feb-14 06:00N 49°19' W 123°06'0 0.0
2018-Feb-14 05:30N 49°19' W 123°06'0 0.0
2018-Feb-14 05:00N 49°19' W 123°06'0 0.0
2018-Feb-14 04:30N 49°19' W 123°06'0 0.0
2018-Feb-14 04:00N 49°19' W 123°06'0 0.0
2018-Feb-14 03:30N 49°19' W 123°06'0 0.0
2018-Feb-14 02:59N 49°19' W 123°06'0 0.0
2018-Feb-14 02:30N 49°19' W 123°06'0 0.0
2018-Feb-14 02:00N 49°19' W 123°06'0 0.0
2018-Feb-14 01:30N 49°19' W 123°06'0 0.0
2018-Feb-14 01:00N 49°19' W 123°06'0 0.0
2018-Feb-14 00:30N 49°19' W 123°06'0 0.0
2018-Feb-14 00:00N 49°19' W 123°06'0 0.0
2018-Feb-13 23:30N 49°19' W 123°06'0 0.0
2018-Feb-13 23:00N 49°19' W 123°06'0 0.0
2018-Feb-13 22:30N 49°19' W 123°06'0 0.0
2018-Feb-13 22:00N 49°19' W 123°06'0 0.0
2018-Feb-13 21:30N 49°19' W 123°06'0 0.0
2018-Feb-13 21:01N 49°19' W 123°06'0 0.0
2018-Feb-13 20:30N 49°19' W 123°06'0 0.0
2018-Feb-13 20:00N 49°19' W 123°06'0 0.0
2018-Feb-13 19:31N 49°19' W 123°06'0 0.0
2018-Feb-13 19:00N 49°19' W 123°06'0 0.1
2018-Feb-13 18:30N 49°19' W 123°06'0 0.0
2018-Feb-13 18:00N 49°19' W 123°06'0 0.0
2018-Feb-13 17:30N 49°19' W 123°06'0 0.0
2018-Feb-13 17:00N 49°19' W 123°06'0 0.0
2018-Feb-13 16:30N 49°19' W 123°06'  

Dump ship's entire track history